createdAt,value
2019-05-19T00:00:45.129Z,64.36
2019-05-19T00:03:14.429Z,65.95
2019-05-19T00:05:43.617Z,66.46
2019-05-19T00:08:13.774Z,67.23
2019-05-19T00:10:43.021Z,67.08
2019-05-19T00:13:12.255Z,64.83
2019-05-19T00:15:41.495Z,64.80
2019-05-19T00:18:10.680Z,65.84
2019-05-19T00:20:40.948Z,66.39
2019-05-19T00:23:10.249Z,66.19
2019-05-19T00:25:39.435Z,66.72
2019-05-19T00:28:08.668Z,65.89
2019-05-19T00:30:37.889Z,66.74
2019-05-19T00:33:07.151Z,67.73
2019-05-19T00:35:36.395Z,67.78
2019-05-19T00:38:05.610Z,67.46
2019-05-19T00:40:34.797Z,67.66
2019-05-19T00:43:04.063Z,67.67
2019-05-19T00:45:33.312Z,68.36
2019-05-19T00:48:02.591Z,68.80
2019-05-19T00:50:31.885Z,69.50
2019-05-19T00:53:01.150Z,68.56
2019-05-19T00:55:30.708Z,67.84
2019-05-19T00:57:59.976Z,67.65
2019-05-19T01:00:29.273Z,67.58
2019-05-19T01:02:58.744Z,67.16
2019-05-19T01:05:27.994Z,67.09
2019-05-19T01:07:57.173Z,67.41
2019-05-19T01:10:26.464Z,66.76
2019-05-19T01:12:55.709Z,66.22
2019-05-19T01:15:24.877Z,65.14
2019-05-19T01:17:54.188Z,67.26
2019-05-19T01:20:23.442Z,67.14
2019-05-19T01:22:52.626Z,67.77
2019-05-19T01:25:21.850Z,68.38
2019-05-19T01:27:51.024Z,69.09
2019-05-19T01:30:20.202Z,69.92
2019-05-19T01:32:49.514Z,69.80
2019-05-19T01:35:18.766Z,68.83
2019-05-19T01:37:47.931Z,68.49
2019-05-19T01:40:18.953Z,67.45
2019-05-19T01:42:48.131Z,67.32
2019-05-19T01:45:17.480Z,69.08
2019-05-19T01:47:46.708Z,70.01
2019-05-19T01:50:17.900Z,69.30
2019-05-19T01:52:46.858Z,70.12
2019-05-19T01:55:16.141Z,70.27
2019-05-19T01:57:45.380Z,70.77
2019-05-19T02:00:14.623Z,70.19
2019-05-19T02:02:43.801Z,70.59
2019-05-19T02:05:12.994Z,70.80
2019-05-19T02:07:42.245Z,71.65
2019-05-19T02:10:11.483Z,70.89
2019-05-19T02:12:40.812Z,71.93
2019-05-19T02:15:10.108Z,71.93
2019-05-19T02:17:39.285Z,71.00
2019-05-19T02:20:08.552Z,71.24
2019-05-19T02:22:37.829Z,70.63
2019-05-19T02:25:07.250Z,71.46
2019-05-19T02:27:36.544Z,69.09
2019-05-19T02:30:09.920Z,69.00
2019-05-19T02:32:39.167Z,66.74
2019-05-19T02:35:08.386Z,66.10
2019-05-19T02:37:37.571Z,63.18
2019-05-19T02:40:06.917Z,60.61
2019-05-19T02:42:38.125Z,62.26
2019-05-19T02:45:07.880Z,63.41
2019-05-19T02:47:38.559Z,62.62
2019-05-19T02:50:08.500Z,60.85
2019-05-19T02:52:37.669Z,59.57
2019-05-19T02:55:07.717Z,60.09
2019-05-19T02:57:37.395Z,61.28
2019-05-19T03:00:10.008Z,62.83
2019-05-19T03:02:39.185Z,64.29
2019-05-19T03:05:08.375Z,65.36
2019-05-19T03:07:37.728Z,67.13
2019-05-19T03:10:07.041Z,66.87
2019-05-19T03:12:36.289Z,68.16
2019-05-19T03:15:06.387Z,68.86
2019-05-19T03:17:35.567Z,68.00
2019-05-19T03:20:06.254Z,68.47
2019-05-19T03:22:35.494Z,69.03
2019-05-19T03:25:06.363Z,68.02
2019-05-19T03:27:35.618Z,67.55
2019-05-19T03:30:27.854Z,68.49
2019-05-19T03:33:01.673Z,67.95
2019-05-19T03:35:30.923Z,64.70
2019-05-19T03:38:00.153Z,65.32
2019-05-19T03:40:29.394Z,65.83
2019-05-19T03:42:58.567Z,66.13
2019-05-19T03:45:27.828Z,63.37
2019-05-19T03:47:57.080Z,62.97
2019-05-19T03:50:26.274Z,63.33
2019-05-19T03:52:55.453Z,62.24
2019-05-19T03:55:24.742Z,59.62
2019-05-19T03:57:53.973Z,60.28
2019-05-19T04:00:23.202Z,60.84
2019-05-19T04:02:52.380Z,62.79
2019-05-19T04:05:21.555Z,63.07
2019-05-19T04:07:50.904Z,63.39
2019-05-19T04:10:20.181Z,64.12
2019-05-19T04:12:49.432Z,62.71
2019-05-19T04:15:18.599Z,64.02
2019-05-19T04:17:47.830Z,64.02
2019-05-19T04:20:17.079Z,63.53
2019-05-19T04:22:46.246Z,65.07
2019-05-19T04:25:15.440Z,66.44
2019-05-19T04:27:44.712Z,66.06
2019-05-19T04:30:13.887Z,65.42
2019-05-19T04:32:43.250Z,65.62
2019-05-19T04:35:12.671Z,66.37
2019-05-19T04:37:41.903Z,66.02
2019-05-19T04:40:11.100Z,64.10
2019-05-19T04:42:40.454Z,63.47
2019-05-19T04:45:09.768Z,61.97
2019-05-19T04:47:39.267Z,62.65
2019-05-19T04:50:27.933Z,61.66
2019-05-19T04:52:57.115Z,60.42
2019-05-19T04:55:26.496Z,59.70
2019-05-19T04:57:55.789Z,60.39
2019-05-19T05:00:25.185Z,61.20
2019-05-19T05:02:54.413Z,62.23
2019-05-19T05:05:23.633Z,62.26
2019-05-19T05:07:52.849Z,62.05
2019-05-19T05:10:22.238Z,60.29
2019-05-19T05:12:51.464Z,60.60
2019-05-19T05:15:20.863Z,59.47
2019-05-19T05:17:50.032Z,58.06
2019-05-19T05:20:19.275Z,58.99
2019-05-19T05:22:48.592Z,59.84
2019-05-19T05:25:18.303Z,60.77
2019-05-19T05:27:47.509Z,62.46
2019-05-19T05:30:16.785Z,62.36
2019-05-19T05:32:46.093Z,61.46
2019-05-19T05:35:15.507Z,63.25
2019-05-19T05:37:44.675Z,62.57
2019-05-19T05:40:13.907Z,63.83
2019-05-19T05:42:43.083Z,65.53
2019-05-19T05:45:12.528Z,65.32
2019-05-19T05:47:41.727Z,64.83
2019-05-19T05:50:11.227Z,63.90
2019-05-19T05:52:40.421Z,61.70
2019-05-19T05:55:09.663Z,59.99
2019-05-19T05:57:38.900Z,60.91
2019-05-19T06:00:09.099Z,61.06
2019-05-19T06:02:38.420Z,60.58
2019-05-19T06:05:07.697Z,61.22
2019-05-19T06:07:36.883Z,61.41
2019-05-19T06:10:07.737Z,62.21
2019-05-19T06:12:36.971Z,63.59
2019-05-19T06:15:06.138Z,64.11
2019-05-19T06:17:35.411Z,64.42
2019-05-19T06:20:06.972Z,64.31
2019-05-19T06:22:36.481Z,64.95
2019-05-19T06:25:05.992Z,65.01
2019-05-19T06:27:35.211Z,63.31
2019-05-19T06:30:08.480Z,63.12
2019-05-19T06:32:50.236Z,65.56
2019-05-19T06:35:19.420Z,65.97
2019-05-19T06:37:48.678Z,66.22
2019-05-19T06:40:17.959Z,64.99
2019-05-19T06:42:47.150Z,64.27
2019-05-19T06:45:16.321Z,63.83
2019-05-19T06:47:45.609Z,62.15
2019-05-19T06:50:15.000Z,61.89
2019-05-19T06:52:44.177Z,61.47
2019-05-19T06:55:14.330Z,61.07
2019-05-19T06:57:43.631Z,60.95
2019-05-19T07:00:13.126Z,60.15
2019-05-19T07:02:42.291Z,56.82
2019-05-19T07:05:11.676Z,56.68
2019-05-19T07:07:41.516Z,54.75
2019-05-19T07:10:10.986Z,54.23
2019-05-19T07:12:40.402Z,53.04
2019-05-19T07:15:09.838Z,51.94
2019-05-19T07:17:39.208Z,52.42
2019-05-19T07:20:08.520Z,52.31
2019-05-19T07:22:37.909Z,53.73
2019-05-19T07:25:07.354Z,53.47
2019-05-19T07:27:36.532Z,55.12
2019-05-19T07:30:06.539Z,55.89
2019-05-19T07:32:35.721Z,56.03
2019-05-19T07:35:06.270Z,57.58
2019-05-19T07:37:35.510Z,58.39
2019-05-19T07:40:05.622Z,59.27
2019-05-19T07:42:34.932Z,59.58
2019-05-19T07:45:05.173Z,60.92
2019-05-19T07:47:34.634Z,61.27
2019-05-19T07:50:04.786Z,62.21
2019-05-19T07:52:34.075Z,60.83
2019-05-19T07:55:04.148Z,62.09
2019-05-19T07:57:33.475Z,63.41
2019-05-19T08:00:02.986Z,64.28
2019-05-19T08:02:32.456Z,62.92
2019-05-19T08:05:01.728Z,63.42
2019-05-19T08:07:30.867Z,63.76
2019-05-19T08:10:00.181Z,65.31
2019-05-19T08:12:29.353Z,65.53
2019-05-19T08:14:58.590Z,67.50
2019-05-19T08:17:27.876Z,67.65
2019-05-19T08:19:57.151Z,68.20
2019-05-19T08:22:26.458Z,67.85
2019-05-19T08:24:55.716Z,68.22
2019-05-19T08:27:25.091Z,68.91
2019-05-19T08:29:55.200Z,68.09
2019-05-19T08:32:24.479Z,68.87
2019-05-19T08:34:53.766Z,70.24
2019-05-19T08:37:22.957Z,68.84
2019-05-19T08:39:52.136Z,69.19
2019-05-19T08:42:21.347Z,69.95
2019-05-19T08:44:50.693Z,68.25
2019-05-19T08:47:20.003Z,67.26
2019-05-19T08:49:49.287Z,67.50
2019-05-19T08:52:18.532Z,67.74
2019-05-19T08:54:47.834Z,66.54
2019-05-19T08:57:17.091Z,65.22
2019-05-19T08:59:46.351Z,66.29
2019-05-19T09:02:15.683Z,66.21
2019-05-19T09:04:44.849Z,62.95
2019-05-19T09:07:14.056Z,65.03
2019-05-19T09:09:43.272Z,63.13
2019-05-19T09:12:12.553Z,64.26
2019-05-19T09:14:41.719Z,64.09
2019-05-19T09:17:10.920Z,63.92
2019-05-19T09:19:40.212Z,62.56
2019-05-19T09:22:09.463Z,62.86
2019-05-19T09:24:38.637Z,60.99
2019-05-19T09:27:07.867Z,61.88
2019-05-19T09:29:37.105Z,60.82
2019-05-19T09:32:06.380Z,61.09
2019-05-19T09:34:35.622Z,61.53
2019-05-19T09:37:04.878Z,58.46
2019-05-19T09:39:34.169Z,57.70
2019-05-19T09:42:03.343Z,55.95
2019-05-19T09:44:32.650Z,57.95
2019-05-19T09:47:02.024Z,61.66
2019-05-19T09:49:37.134Z,61.88
2019-05-19T09:52:06.438Z,62.60
2019-05-19T09:54:44.783Z,61.66
2019-05-19T09:57:06.666Z,63.56
2019-05-19T09:59:36.326Z,64.38
2019-05-19T10:02:05.591Z,65.07
2019-05-19T10:04:34.864Z,66.79
2019-05-19T10:07:05.309Z,68.18
2019-05-19T10:09:53.969Z,67.34
2019-05-19T10:12:23.519Z,67.88
2019-05-19T10:14:52.868Z,68.08
2019-05-19T10:17:22.114Z,67.28
2019-05-19T10:19:51.435Z,65.48
2019-05-19T10:22:20.845Z,65.78
2019-05-19T10:25:10.222Z,66.05
2019-05-19T10:27:21.849Z,67.13
2019-05-19T10:29:51.216Z,66.73
2019-05-19T10:32:20.394Z,66.19
2019-05-19T10:34:49.677Z,66.22
2019-05-19T10:37:19.293Z,64.67
2019-05-19T10:39:48.568Z,63.95
2019-05-19T10:42:17.864Z,64.81
2019-05-19T10:44:47.372Z,63.23
2019-05-19T10:47:16.562Z,61.69
2019-05-19T10:49:45.927Z,59.26
2019-05-19T10:52:15.164Z,57.74
2019-05-19T10:54:44.344Z,57.80
2019-05-19T10:57:13.621Z,56.57
2019-05-19T10:59:42.922Z,58.08
2019-05-19T11:02:12.377Z,57.25
2019-05-19T11:04:42.090Z,54.34
2019-05-19T11:07:11.339Z,51.60
2019-05-19T11:09:40.508Z,51.17
2019-05-19T11:12:09.723Z,52.63
2019-05-19T11:14:38.907Z,52.21
2019-05-19T11:17:08.095Z,52.94
2019-05-19T11:19:37.320Z,54.77
2019-05-19T11:22:06.794Z,54.78
2019-05-19T11:24:35.979Z,55.00
2019-05-19T11:27:05.257Z,55.15
2019-05-19T11:29:34.499Z,52.61
2019-05-19T11:32:03.817Z,54.34
2019-05-19T11:34:33.112Z,55.11
2019-05-19T11:37:02.414Z,54.23
2019-05-19T11:39:31.583Z,54.78
2019-05-19T11:42:00.854Z,55.09
2019-05-19T11:44:30.052Z,54.69
2019-05-19T11:46:59.279Z,56.08
2019-05-19T11:49:28.447Z,55.22
2019-05-19T11:51:57.705Z,55.49
2019-05-19T11:54:26.915Z,56.98
2019-05-19T11:56:56.082Z,57.80
2019-05-19T11:59:25.393Z,59.19
2019-05-19T12:01:54.558Z,58.23
2019-05-19T12:04:23.740Z,59.25
2019-05-19T12:06:52.950Z,60.60
2019-05-19T12:09:22.205Z,61.36
2019-05-19T12:11:51.462Z,59.98
2019-05-19T12:14:20.685Z,60.26
2019-05-19T12:16:50.006Z,59.41
2019-05-19T12:19:19.204Z,58.02
2019-05-19T12:21:48.404Z,58.00
2019-05-19T12:24:17.886Z,56.00
2019-05-19T12:26:47.063Z,56.53
2019-05-19T12:29:16.538Z,56.47
2019-05-19T12:31:45.707Z,55.22
2019-05-19T12:34:15.014Z,54.38
2019-05-19T12:36:44.349Z,53.29
2019-05-19T12:39:13.608Z,53.89
2019-05-19T12:41:42.902Z,52.84
2019-05-19T12:44:12.166Z,53.48
2019-05-19T12:46:41.410Z,53.93
2019-05-19T12:49:10.630Z,53.17
2019-05-19T12:51:39.882Z,53.56
2019-05-19T12:54:09.056Z,52.47
2019-05-19T12:56:40.033Z,52.56
2019-05-19T12:59:09.148Z,52.29
2019-05-19T13:01:38.421Z,51.43
2019-05-19T13:04:07.579Z,52.72
2019-05-19T13:06:37.274Z,51.81
2019-05-19T13:09:07.304Z,53.37
2019-05-19T13:11:36.547Z,53.57
2019-05-19T13:14:07.204Z,53.63
2019-05-19T13:16:36.444Z,53.02
2019-05-19T13:19:05.683Z,54.66
2019-05-19T13:21:35.100Z,55.06
2019-05-19T13:24:04.412Z,54.43
2019-05-19T13:26:33.754Z,54.78
2019-05-19T13:29:03.196Z,54.54
2019-05-19T13:31:32.640Z,54.14
2019-05-19T13:34:02.091Z,54.29
2019-05-19T13:36:31.553Z,53.48
2019-05-19T13:39:00.943Z,53.13
2019-05-19T13:41:30.248Z,53.51
2019-05-19T13:43:59.866Z,53.76
2019-05-19T13:46:29.447Z,54.55
2019-05-19T13:48:58.810Z,54.71
2019-05-19T13:51:28.067Z,52.67
2019-05-19T13:53:57.304Z,51.08
2019-05-19T13:56:26.849Z,51.76
2019-05-19T13:58:56.241Z,53.50
2019-05-19T14:01:28.667Z,54.16
2019-05-19T14:03:57.218Z,53.82
2019-05-19T14:06:28.467Z,53.55
2019-05-19T14:08:57.995Z,54.08
2019-05-19T14:11:27.616Z,52.24
2019-05-19T14:13:57.329Z,51.99
2019-05-19T14:16:26.663Z,52.05
2019-05-19T14:18:55.912Z,52.69
2019-05-19T14:21:25.547Z,53.11
2019-05-19T14:23:54.896Z,52.21
2019-05-19T14:26:24.267Z,51.60
2019-05-19T14:28:53.892Z,51.19
2019-05-19T14:31:23.334Z,49.36
2019-05-19T14:33:52.707Z,49.85
2019-05-19T14:36:22.059Z,49.45
2019-05-19T14:39:05.092Z,50.04
2019-05-19T14:41:33.993Z,49.37
2019-05-19T14:44:05.053Z,51.52
2019-05-19T14:46:35.681Z,51.87
2019-05-19T14:49:05.593Z,51.86
2019-05-19T14:51:36.842Z,51.97
2019-05-19T14:54:06.369Z,50.41
2019-05-19T14:56:38.511Z,50.47
2019-05-19T14:59:12.568Z,48.57
2019-05-19T15:01:41.959Z,48.85
2019-05-19T15:04:11.499Z,47.32
2019-05-19T15:06:40.889Z,49.06
2019-05-19T15:09:11.962Z,48.48
2019-05-19T15:11:41.361Z,48.58
2019-05-19T15:14:10.910Z,48.45
2019-05-19T15:16:40.083Z,49.47
2019-05-19T15:19:09.418Z,50.22
2019-05-19T15:21:38.718Z,48.66
2019-05-19T15:24:08.304Z,48.96
2019-05-19T15:26:37.618Z,46.87
2019-05-19T15:29:06.948Z,46.71
2019-05-19T15:31:36.219Z,46.19
2019-05-19T15:34:05.603Z,46.68
2019-05-19T15:36:34.932Z,46.20
2019-05-19T15:39:04.888Z,43.63
2019-05-19T15:41:34.348Z,43.62
2019-05-19T15:44:03.661Z,44.33
2019-05-19T15:46:33.182Z,43.41
2019-05-19T15:49:02.574Z,44.59
2019-05-19T15:51:37.362Z,43.35
2019-05-19T15:54:04.224Z,44.44
2019-05-19T15:56:33.509Z,44.98
2019-05-19T15:59:02.978Z,46.14
2019-05-19T16:01:32.570Z,46.13
2019-05-19T16:04:02.049Z,47.02
2019-05-19T16:06:31.603Z,47.58
2019-05-19T16:09:01.000Z,47.33
2019-05-19T16:11:30.323Z,46.33
2019-05-19T16:13:59.766Z,46.91
2019-05-19T16:16:29.153Z,47.14
2019-05-19T16:18:58.586Z,46.78
2019-05-19T16:21:28.022Z,47.76
2019-05-19T16:23:57.390Z,47.36
2019-05-19T16:26:26.790Z,48.09
2019-05-19T16:28:56.171Z,47.67
2019-05-19T16:31:25.491Z,47.60
2019-05-19T16:33:54.955Z,47.91
2019-05-19T16:36:24.352Z,46.25
2019-05-19T16:38:53.751Z,46.68
2019-05-19T16:41:24.112Z,46.88
2019-05-19T16:43:53.350Z,45.72
2019-05-19T16:46:25.518Z,47.87
2019-05-19T16:48:54.778Z,47.12
2019-05-19T16:51:24.233Z,46.34
2019-05-19T16:53:55.201Z,46.26
2019-05-19T16:56:24.755Z,47.71
2019-05-19T16:58:54.076Z,46.33
2019-05-19T17:01:23.557Z,46.29
2019-05-19T17:03:52.886Z,46.82
2019-05-19T17:06:22.208Z,47.26
2019-05-19T17:08:51.514Z,47.59
2019-05-19T17:11:20.830Z,48.47
2019-05-19T17:13:50.250Z,48.90
2019-05-19T17:16:20.069Z,49.40
2019-05-19T17:18:49.335Z,48.99
2019-05-19T17:21:18.976Z,49.73
2019-05-19T17:23:48.398Z,49.24
2019-05-19T17:26:17.772Z,49.18
2019-05-19T17:28:59.872Z,49.93
2019-05-19T17:31:18.533Z,50.09
2019-05-19T17:33:47.819Z,49.65
2019-05-19T17:36:17.189Z,49.66
2019-05-19T17:38:46.606Z,50.20
2019-05-19T17:41:15.883Z,50.64
2019-05-19T17:43:45.643Z,50.81
2019-05-19T17:46:15.064Z,51.39
2019-05-19T17:48:44.459Z,51.22
2019-05-19T17:51:14.224Z,51.21
2019-05-19T17:53:43.584Z,51.40
2019-05-19T17:56:12.984Z,51.64
2019-05-19T17:58:42.349Z,51.62
2019-05-19T18:01:11.609Z,51.71
2019-05-19T18:03:41.223Z,51.52
2019-05-19T18:06:10.676Z,50.39
2019-05-19T18:08:40.074Z,50.65
2019-05-19T18:11:09.525Z,50.47
2019-05-19T18:13:38.857Z,51.20
2019-05-19T18:16:08.259Z,50.95
2019-05-19T18:18:37.584Z,47.86
2019-05-19T18:21:07.186Z,45.86
2019-05-19T18:23:36.495Z,44.59
2019-05-19T18:26:07.382Z,46.11
2019-05-19T18:28:36.865Z,46.58
2019-05-19T18:31:06.225Z,48.03
2019-05-19T18:33:35.391Z,49.09
2019-05-19T18:36:04.834Z,50.57
2019-05-19T18:38:34.249Z,52.28
2019-05-19T18:41:03.621Z,53.30
2019-05-19T18:43:33.117Z,54.00
2019-05-19T18:46:04.001Z,54.18
2019-05-19T18:48:33.598Z,54.24
2019-05-19T18:51:02.968Z,53.79
2019-05-19T18:53:32.456Z,54.11
2019-05-19T18:56:01.766Z,53.67
2019-05-19T18:58:31.031Z,54.02
2019-05-19T19:01:00.409Z,55.03
2019-05-19T19:03:29.660Z,55.44
2019-05-19T19:05:59.067Z,55.97
2019-05-19T19:08:28.480Z,56.34
2019-05-19T19:10:57.746Z,57.49
2019-05-19T19:13:26.995Z,57.40
2019-05-19T19:15:56.306Z,57.62
2019-05-19T19:18:25.766Z,58.44
2019-05-19T19:20:55.148Z,60.27
2019-05-19T19:23:26.314Z,61.58
2019-05-19T19:25:55.668Z,61.96
2019-05-19T19:28:25.113Z,61.73
2019-05-19T19:30:54.419Z,62.58
2019-05-19T19:33:23.648Z,62.62
2019-05-19T19:35:52.838Z,62.70
2019-05-19T19:38:22.157Z,63.61
2019-05-19T19:40:54.084Z,63.48
2019-05-19T19:43:23.911Z,63.47
2019-05-19T19:45:53.154Z,63.96
2019-05-19T19:48:22.391Z,63.65
2019-05-19T19:50:51.566Z,63.64
2019-05-19T19:53:20.778Z,63.95
2019-05-19T19:55:49.999Z,63.71
2019-05-19T19:58:19.173Z,63.16
2019-05-19T20:00:50.223Z,63.92
2019-05-19T20:03:19.507Z,62.99
2019-05-19T20:05:48.680Z,63.72
2019-05-19T20:08:17.862Z,64.54
2019-05-19T20:10:47.211Z,64.58
2019-05-19T20:13:16.598Z,64.83
2019-05-19T20:15:45.828Z,65.18
2019-05-19T20:18:16.550Z,64.54
2019-05-19T20:20:45.884Z,63.90
2019-05-19T20:23:15.128Z,64.08
2019-05-19T20:25:44.534Z,64.75
2019-05-19T20:28:13.858Z,65.37
2019-05-19T20:30:45.407Z,65.20
2019-05-19T20:33:14.597Z,65.66
2019-05-19T20:35:43.809Z,65.31
2019-05-19T20:38:13.087Z,65.05
2019-05-19T20:40:43.078Z,65.86
2019-05-19T20:43:12.436Z,65.17
2019-05-19T20:45:41.723Z,65.69
2019-05-19T20:48:11.026Z,64.46
2019-05-19T20:50:40.267Z,64.90
2019-05-19T20:53:10.003Z,65.24
2019-05-19T20:55:39.202Z,66.24
2019-05-19T20:58:08.384Z,66.55
2019-05-19T21:00:49.375Z,66.52
2019-05-19T21:03:08.636Z,66.30
2019-05-19T21:05:38.650Z,65.76
2019-05-19T21:08:07.845Z,66.35
2019-05-19T21:10:37.198Z,66.80
2019-05-19T21:13:06.456Z,66.25
2019-05-19T21:15:35.764Z,66.89
2019-05-19T21:18:05.384Z,66.93
2019-05-19T21:20:34.575Z,66.56
2019-05-19T21:23:03.779Z,66.80
2019-05-19T21:25:32.957Z,66.98
2019-05-19T21:28:02.255Z,66.40
2019-05-19T21:30:31.495Z,66.93
2019-05-19T21:33:00.733Z,67.48
2019-05-19T21:35:30.056Z,67.54
2019-05-19T21:37:59.371Z,67.09
2019-05-19T21:40:28.555Z,67.50
2019-05-19T21:42:57.910Z,67.23
2019-05-19T21:45:27.157Z,67.07
2019-05-19T21:47:56.381Z,67.59
2019-05-19T21:50:25.636Z,67.28
2019-05-19T21:52:54.897Z,66.91
2019-05-19T21:55:24.265Z,67.12
2019-05-19T21:57:53.520Z,67.20
2019-05-19T22:00:24.338Z,67.49
2019-05-19T22:02:53.636Z,67.09
2019-05-19T22:05:22.880Z,67.72
2019-05-19T22:07:56.717Z,67.82
2019-05-19T22:10:26.014Z,67.97
2019-05-19T22:12:55.246Z,67.44
2019-05-19T22:15:24.725Z,67.62
2019-05-19T22:17:53.951Z,68.50
2019-05-19T22:20:23.252Z,67.63
2019-05-19T22:22:52.751Z,68.12
2019-05-19T22:25:22.040Z,68.13
2019-05-19T22:27:51.291Z,68.41
2019-05-19T22:30:20.585Z,68.00
2019-05-19T22:32:49.842Z,66.88
2019-05-19T22:35:19.113Z,66.52
2019-05-19T22:37:48.381Z,67.61
2019-05-19T22:40:17.635Z,67.92
2019-05-19T22:42:46.861Z,67.25
2019-05-19T22:45:16.112Z,67.81
2019-05-19T22:47:45.394Z,68.42
2019-05-19T22:50:14.726Z,67.95
2019-05-19T22:52:44.157Z,68.33
2019-05-19T22:55:13.491Z,68.02
2019-05-19T22:57:42.913Z,68.58
2019-05-19T23:00:12.819Z,69.48
2019-05-19T23:02:42.010Z,68.79
2019-05-19T23:05:11.397Z,68.02
2019-05-19T23:07:40.787Z,68.34
2019-05-19T23:10:10.174Z,68.02
2019-05-19T23:12:39.572Z,68.94
2019-05-19T23:15:10.039Z,69.28
2019-05-19T23:17:39.301Z,69.60
2019-05-19T23:20:08.483Z,69.72
2019-05-19T23:22:37.852Z,69.39
2019-05-19T23:25:07.120Z,68.86
2019-05-19T23:27:36.363Z,69.72
2019-05-19T23:30:07.439Z,69.79
2019-05-19T23:32:36.620Z,69.87
2019-05-19T23:35:08.326Z,69.43
2019-05-19T23:37:37.506Z,68.77
2019-05-19T23:40:09.632Z,70.41
2019-05-19T23:42:38.371Z,70.60
2019-05-19T23:45:08.539Z,70.86
2019-05-19T23:47:37.792Z,71.26
2019-05-19T23:50:07.364Z,70.27
2019-05-19T23:52:36.529Z,69.86
2019-05-19T23:55:06.707Z,70.40
2019-05-19T23:57:35.990Z,70.40
